Time;durP1;ratioP1;P1;durP2;ratioP2;P2;SDS_P1;SDS_P2;PMS_P1;PMS_P2;Temp;Humidity;BMP_temperature;BMP_pressure;BME280_temperature;BME280_humidity;BME280_pressure;Samples;Min_cycle;Max_cycle;Signal;HPM_P1;HPM_P2
2019/07/24 00:02:07;;;;;;;2.69;2.48;;;;;;;22.93;56.82;100539.56;;;;-58
2019/07/24 00:05:07;;;;;;;3.57;2.44;;;;;;;22.92;56.83;100537.11;;;;-58
2019/07/24 00:08:07;;;;;;;2.58;2.38;;;;;;;22.93;56.80;100539.16;;;;-58
2019/07/24 00:11:07;;;;;;;2.68;2.41;;;;;;;22.93;56.81;100542.03;;;;-58
2019/07/24 00:14:09;;;;;;;2.49;2.29;;;;;;;22.91;56.77;100538.09;;;;-58
2019/07/24 00:17:07;;;;;;;2.64;2.44;;;;;;;22.92;56.78;100538.36;;;;-58
2019/07/24 00:20:07;;;;;;;2.69;2.39;;;;;;;22.91;56.80;100534.95;;;;-58
2019/07/24 00:23:07;;;;;;;2.55;2.31;;;;;;;22.91;56.76;100532.03;;;;-57
2019/07/24 00:26:07;;;;;;;2.51;2.31;;;;;;;22.92;56.78;100534.15;;;;-57
2019/07/24 00:29:07;;;;;;;2.50;2.30;;;;;;;22.91;56.75;100531.69;;;;-58
2019/07/24 00:32:07;;;;;;;2.57;2.37;;;;;;;22.91;56.79;100536.74;;;;-57
2019/07/24 00:35:07;;;;;;;2.48;2.21;;;;;;;22.91;56.77;100531.92;;;;-58
2019/07/24 00:38:07;;;;;;;2.58;2.38;;;;;;;22.90;56.78;100530.98;;;;-58
2019/07/24 00:41:07;;;;;;;2.78;2.40;;;;;;;22.90;56.76;100527.95;;;;-57
2019/07/24 00:44:07;;;;;;;2.48;2.28;;;;;;;22.90;56.80;100524.31;;;;-57
2019/07/24 00:47:07;;;;;;;2.51;2.31;;;;;;;22.90;56.78;100523.41;;;;-58
2019/07/24 00:50:07;;;;;;;2.91;2.52;;;;;;;22.90;56.76;100524.31;;;;-58
2019/07/24 00:53:07;;;;;;;2.49;2.29;;;;;;;22.90;56.75;100524.82;;;;-57
2019/07/24 00:56:07;;;;;;;2.47;2.26;;;;;;;22.90;56.74;100526.61;;;;-58
2019/07/24 00:59:07;;;;;;;2.81;2.35;;;;;;;22.89;56.78;100519.57;;;;-58
2019/07/24 01:02:07;;;;;;;2.84;2.41;;;;;;;22.89;56.74;100515.96;;;;-58
2019/07/24 01:05:07;;;;;;;2.59;2.32;;;;;;;22.89;56.72;100513.34;;;;-58
2019/07/24 01:08:07;;;;;;;2.80;2.37;;;;;;;22.89;56.77;100515.02;;;;-58
2019/07/24 01:11:07;;;;;;;2.48;2.25;;;;;;;22.89;56.78;100515.30;;;;-58
2019/07/24 01:14:07;;;;;;;2.55;2.35;;;;;;;22.89;56.75;100514.78;;;;-57
2019/07/24 01:17:07;;;;;;;2.62;2.39;;;;;;;22.89;56.72;100511.15;;;;-58
2019/07/24 01:20:07;;;;;;;3.14;2.32;;;;;;;22.89;56.71;100508.22;;;;-57
2019/07/24 01:23:07;;;;;;;2.40;2.20;;;;;;;22.88;56.72;100503.30;;;;-58
2019/07/24 01:26:07;;;;;;;2.39;2.19;;;;;;;22.88;56.71;100501.69;;;;-58
2019/07/24 01:29:07;;;;;;;3.13;2.30;;;;;;;22.88;56.72;100500.84;;;;-58
2019/07/24 01:32:07;;;;;;;2.46;2.13;;;;;;;22.89;56.72;100497.27;;;;-58
2019/07/24 01:35:07;;;;;;;2.30;2.09;;;;;;;22.88;56.73;100497.07;;;;-58
2019/07/24 01:38:08;;;;;;;2.85;2.31;;;;;;;22.88;56.68;100499.16;;;;-58
2019/07/24 01:41:07;;;;;;;2.77;2.29;;;;;;;22.88;56.70;100499.94;;;;-58
2019/07/24 01:44:07;;;;;;;2.50;2.30;;;;;;;22.88;56.70;100497.91;;;;-57
2019/07/24 01:47:07;;;;;;;2.46;2.26;;;;;;;22.87;56.71;100496.09;;;;-58
2019/07/24 01:50:07;;;;;;;2.59;2.34;;;;;;;22.88;56.71;100497.48;;;;-58
2019/07/24 01:53:07;;;;;;;2.46;2.26;;;;;;;22.88;56.70;100496.73;;;;-59
2019/07/24 01:56:07;;;;;;;3.03;2.43;;;;;;;22.87;56.71;100496.36;;;;-57
2019/07/24 01:59:07;;;;;;;2.61;2.37;;;;;;;22.87;56.73;100498.63;;;;-58
2019/07/24 02:02:07;;;;;;;2.81;2.23;;;;;;;22.87;56.71;100495.86;;;;-58
2019/07/24 02:05:07;;;;;;;2.36;2.16;;;;;;;22.87;56.76;100497.87;;;;-58
2019/07/24 02:08:07;;;;;;;2.71;2.43;;;;;;;22.86;56.73;100500.20;;;;-58
2019/07/24 02:11:07;;;;;;;2.42;2.15;;;;;;;22.87;56.67;100504.69;;;;-58
2019/07/24 02:14:07;;;;;;;2.70;2.31;;;;;;;22.87;56.67;100498.63;;;;-57
2019/07/24 02:17:07;;;;;;;2.48;2.21;;;;;;;22.87;56.71;100499.63;;;;-58
2019/07/24 02:20:07;;;;;;;2.43;2.23;;;;;;;22.87;56.66;100500.58;;;;-58
2019/07/24 02:23:07;;;;;;;2.33;2.13;;;;;;;22.86;56.67;100502.06;;;;-58
2019/07/24 02:26:07;;;;;;;2.51;2.28;;;;;;;22.86;56.69;100504.15;;;;-58
2019/07/24 02:29:07;;;;;;;2.40;2.20;;;;;;;22.86;56.69;100502.13;;;;-58
2019/07/24 02:32:27;;;;;;;2.50;2.10;;;;;;;22.86;56.71;100507.11;;;;-59
2019/07/24 02:35:07;;;;;;;2.42;2.20;;;;;;;22.86;56.71;100503.64;;;;-58
2019/07/24 02:38:07;;;;;;;2.51;2.31;;;;;;;22.86;56.67;100508.29;;;;-58
2019/07/24 02:41:07;;;;;;;2.35;2.15;;;;;;;22.85;56.69;100505.13;;;;-58
2019/07/24 02:44:07;;;;;;;2.49;2.29;;;;;;;22.85;56.70;100504.48;;;;-58
2019/07/24 02:47:07;;;;;;;2.49;2.29;;;;;;;22.85;56.72;100502.36;;;;-58
2019/07/24 02:50:07;;;;;;;2.33;2.13;;;;;;;22.85;56.67;100507.42;;;;-58
2019/07/24 02:53:07;;;;;;;2.26;2.11;;;;;;;22.86;56.66;100506.34;;;;-58
2019/07/24 02:56:07;;;;;;;2.56;2.30;;;;;;;22.86;56.69;100506.17;;;;-58
2019/07/24 02:59:07;;;;;;;2.20;2.00;;;;;;;22.86;56.70;100508.02;;;;-58
2019/07/24 03:02:07;;;;;;;2.27;2.10;;;;;;;22.84;56.69;100508.66;;;;-58
2019/07/24 03:05:07;;;;;;;2.50;2.30;;;;;;;22.84;56.67;100508.33;;;;-59
2019/07/24 03:08:07;;;;;;;2.31;2.11;;;;;;;22.84;56.68;100507.89;;;;-58
2019/07/24 03:11:07;;;;;;;2.33;2.11;;;;;;;22.85;56.66;100499.17;;;;-58
2019/07/24 03:14:07;;;;;;;2.42;2.22;;;;;;;22.84;56.67;100491.49;;;;-58
2019/07/24 03:17:07;;;;;;;2.29;2.09;;;;;;;22.85;56.65;100491.76;;;;-58
2019/07/24 03:20:07;;;;;;;2.38;2.13;;;;;;;22.84;56.66;100493.41;;;;-57
2019/07/24 03:23:07;;;;;;;2.44;2.24;;;;;;;22.84;56.68;100498.39;;;;-57
2019/07/24 03:26:07;;;;;;;2.33;2.13;;;;;;;22.84;56.66;100497.45;;;;-58
2019/07/24 03:29:07;;;;;;;2.20;2.00;;;;;;;22.84;56.68;100496.71;;;;-58
2019/07/24 03:32:07;;;;;;;2.86;2.10;;;;;;;22.84;56.65;100493.41;;;;-58
2019/07/24 03:35:07;;;;;;;2.49;2.29;;;;;;;22.83;56.66;100493.04;;;;-58
2019/07/24 03:38:07;;;;;;;2.20;2.00;;;;;;;22.83;56.70;100490.95;;;;-58
2019/07/24 03:41:07;;;;;;;2.35;2.15;;;;;;;22.83;56.70;100490.17;;;;-58
2019/07/24 03:44:07;;;;;;;2.30;2.10;;;;;;;22.84;56.70;100495.16;;;;-58
2019/07/24 03:47:07;;;;;;;2.30;2.10;;;;;;;22.84;56.67;100495.09;;;;-58
2019/07/24 03:50:07;;;;;;;2.39;2.09;;;;;;;22.84;56.70;100494.83;;;;-58
2019/07/24 03:53:07;;;;;;;2.22;2.03;;;;;;;22.84;56.66;100493.14;;;;-58
2019/07/24 03:56:07;;;;;;;2.19;1.99;;;;;;;22.84;56.69;100490.72;;;;-58
2019/07/24 03:59:07;;;;;;;2.30;2.10;;;;;;;22.83;56.67;100491.19;;;;-57
2019/07/24 04:02:07;;;;;;;2.40;2.03;;;;;;;22.84;56.83;100496.20;;;;-58
2019/07/24 04:05:07;;;;;;;2.89;2.12;;;;;;;22.85;56.58;100495.97;;;;-57
2019/07/24 04:08:07;;;;;;;4.23;2.88;;;;;;;22.86;55.76;100496.50;;;;-58
2019/07/24 04:11:07;;;;;;;6.29;3.07;;;;;;;22.87;55.63;100498.55;;;;-51
2019/07/24 04:14:07;;;;;;;3.19;2.70;;;;;;;22.87;56.10;100500.98;;;;-51
2019/07/24 04:17:07;;;;;;;3.49;3.19;;;;;;;22.87;55.57;100496.53;;;;-51
2019/07/24 04:20:07;;;;;;;5.15;3.25;;;;;;;22.87;55.72;100494.75;;;;-57
2019/07/24 04:23:07;;;;;;;4.07;2.98;;;;;;;22.86;55.68;100490.44;;;;-57
2019/07/24 04:26:07;;;;;;;4.98;3.27;;;;;;;22.86;55.71;100486.12;;;;-58
2019/07/24 04:29:07;;;;;;;3.88;3.47;;;;;;;22.86;55.82;100483.88;;;;-57
2019/07/24 04:32:07;;;;;;;6.23;3.51;;;;;;;22.86;55.80;100483.70;;;;-57
2019/07/24 04:35:07;;;;;;;3.87;3.33;;;;;;;22.85;55.97;100482.83;;;;-57
2019/07/24 04:38:07;;;;;;;3.77;3.31;;;;;;;22.85;56.00;100482.09;;;;-58
2019/07/24 04:41:07;;;;;;;3.95;3.31;;;;;;;22.84;56.06;100480.78;;;;-58
2019/07/24 04:44:07;;;;;;;4.43;3.59;;;;;;;22.84;56.11;100476.33;;;;-58
2019/07/24 04:47:07;;;;;;;4.58;3.29;;;;;;;22.85;56.09;100481.55;;;;-57
2019/07/24 04:50:07;;;;;;;4.20;3.35;;;;;;;22.84;56.14;100486.23;;;;-58
2019/07/24 04:53:07;;;;;;;5.74;3.31;;;;;;;22.84;56.14;100488.59;;;;-58
2019/07/24 04:56:07;;;;;;;3.97;3.42;;;;;;;22.84;56.11;100492.16;;;;-58
2019/07/24 04:59:07;;;;;;;4.53;3.19;;;;;;;22.84;56.13;100493.01;;;;-57
2019/07/24 05:02:07;;;;;;;5.41;3.41;;;;;;;22.84;56.10;100491.05;;;;-58
2019/07/24 05:05:07;;;;;;;6.03;3.45;;;;;;;22.84;56.21;100493.65;;;;-57
2019/07/24 05:08:07;;;;;;;4.45;3.43;;;;;;;22.84;56.27;100493.07;;;;-58
2019/07/24 05:11:07;;;;;;;5.06;3.41;;;;;;;22.83;56.25;100491.63;;;;-57
2019/07/24 05:14:07;;;;;;;4.79;3.39;;;;;;;22.84;56.27;100490.14;;;;-58
2019/07/24 05:17:07;;;;;;;4.02;3.26;;;;;;;22.84;56.28;100488.77;;;;-58
2019/07/24 05:20:07;;;;;;;3.49;3.19;;;;;;;22.83;56.30;100484.63;;;;-58
2019/07/24 05:23:07;;;;;;;4.89;3.17;;;;;;;22.83;56.33;100483.44;;;;-58
2019/07/24 05:26:07;;;;;;;4.07;3.38;;;;;;;22.83;56.31;100485.47;;;;-58
2019/07/24 05:29:07;;;;;;;3.47;3.17;;;;;;;22.84;56.31;100490.62;;;;-58
2019/07/24 05:32:07;;;;;;;5.40;3.35;;;;;;;22.83;56.33;100496.65;;;;-58
2019/07/24 05:35:07;;;;;;;4.15;3.54;;;;;;;22.83;56.31;100493.81;;;;-58
2019/07/24 05:38:07;;;;;;;3.71;3.27;;;;;;;22.82;56.35;100493.52;;;;-58
2019/07/24 05:41:07;;;;;;;4.39;3.24;;;;;;;22.83;56.37;100497.66;;;;-58
2019/07/24 05:44:07;;;;;;;3.67;3.22;;;;;;;22.83;56.35;100502.88;;;;-58
2019/07/24 05:47:07;;;;;;;4.11;3.12;;;;;;;22.83;56.37;100504.59;;;;-58
2019/07/24 05:52:07;;;;;;;3.41;3.07;;;;;;;22.83;56.35;100506.25;;;;-58
2019/07/24 05:56:07;;;;;;;3.46;3.12;;;;;;;22.82;56.33;100508.00;;;;-59
2019/07/24 05:59:07;;;;;;;3.47;3.07;;;;;;;22.82;56.35;100504.46;;;;-59
2019/07/24 06:02:07;;;;;;;3.93;3.17;;;;;;;22.83;56.34;100507.19;;;;-58
2019/07/24 06:05:07;;;;;;;3.63;3.08;;;;;;;22.83;56.35;100510.63;;;;-58
2019/07/24 06:08:07;;;;;;;3.49;3.19;;;;;;;22.82;56.37;100504.39;;;;-56
2019/07/24 06:11:07;;;;;;;3.49;3.19;;;;;;;22.82;56.34;100509.61;;;;-58
2019/07/24 06:14:07;;;;;;;3.50;3.15;;;;;;;22.83;56.36;100512.47;;;;-58
2019/07/24 06:17:07;;;;;;;3.22;2.97;;;;;;;22.83;56.39;100516.11;;;;-58
2019/07/24 06:20:07;;;;;;;3.70;3.00;;;;;;;22.83;56.40;100523.76;;;;-58
2019/07/24 06:23:07;;;;;;;3.39;3.09;;;;;;;22.83;56.38;100522.00;;;;-58
2019/07/24 06:26:07;;;;;;;3.27;2.97;;;;;;;22.83;56.41;100519.38;;;;-58
2019/07/24 06:29:07;;;;;;;3.87;3.11;;;;;;;22.83;56.42;100518.37;;;;-56
2019/07/24 06:32:07;;;;;;;3.43;3.13;;;;;;;22.83;56.40;100517.02;;;;-56
2019/07/24 06:35:07;;;;;;;4.49;3.11;;;;;;;22.82;56.42;100521.73;;;;-58
2019/07/24 06:38:07;;;;;;;3.76;2.90;;;;;;;22.82;56.41;100525.67;;;;-56
2019/07/24 06:41:07;;;;;;;3.29;2.99;;;;;;;22.82;56.39;100525.95;;;;-58
2019/07/24 06:44:07;;;;;;;3.45;3.15;;;;;;;22.83;56.40;100523.35;;;;-57
2019/07/24 06:47:07;;;;;;;4.52;3.24;;;;;;;22.83;56.43;100529.14;;;;-58
2019/07/24 06:50:07;;;;;;;3.23;2.95;;;;;;;22.83;56.39;100532.95;;;;-58
2019/07/24 06:53:07;;;;;;;3.22;2.99;;;;;;;22.82;56.40;100532.25;;;;-58
2019/07/24 06:56:07;;;;;;;3.04;2.83;;;;;;;22.83;56.42;100531.53;;;;-58
2019/07/24 06:59:07;;;;;;;3.27;2.97;;;;;;;22.82;56.40;100533.59;;;;-58
2019/07/24 07:02:07;;;;;;;2.93;2.73;;;;;;;22.82;56.44;100529.15;;;;-58
2019/07/24 07:05:07;;;;;;;3.04;2.80;;;;;;;22.83;56.37;100528.98;;;;-57
2019/07/24 07:08:07;;;;;;;3.07;2.81;;;;;;;22.82;56.38;100531.23;;;;-58
2019/07/24 07:11:07;;;;;;;3.37;3.09;;;;;;;22.82;56.40;100528.37;;;;-58
2019/07/24 07:14:07;;;;;;;3.56;2.91;;;;;;;22.83;56.39;100526.82;;;;-58
2019/07/24 07:17:07;;;;;;;4.54;2.98;;;;;;;22.82;56.65;100525.17;;;;-57
2019/07/24 07:20:07;;;;;;;3.62;3.09;;;;;;;22.82;56.66;100522.81;;;;-57
2019/07/24 07:23:07;;;;;;;3.37;3.00;;;;;;;22.83;56.70;100516.88;;;;-58
2019/07/24 07:26:07;;;;;;;3.58;3.09;;;;;;;22.83;56.75;100517.56;;;;-58
2019/07/24 07:29:07;;;;;;;3.34;3.05;;;;;;;22.85;56.79;100518.27;;;;-58
2019/07/24 07:32:07;;;;;;;3.16;2.76;;;;;;;22.85;56.85;100521.16;;;;-58
2019/07/24 07:35:07;;;;;;;5.04;3.11;;;;;;;22.87;57.16;100527.59;;;;-53
2019/07/24 07:38:07;;;;;;;7.45;3.34;;;;;;;22.89;57.07;100531.19;;;;-57
2019/07/24 07:41:07;;;;;;;10.00;3.39;;;;;;;22.92;57.39;100526.33;;;;-57
2019/07/24 07:44:07;;;;;;;8.21;3.08;;;;;;;22.95;57.61;100530.27;;;;-55
2019/07/24 07:47:07;;;;;;;9.72;3.14;;;;;;;22.95;57.61;100528.62;;;;-55
2019/07/24 07:50:07;;;;;;;10.95;3.08;;;;;;;22.98;57.57;100528.44;;;;-56
2019/07/24 07:53:07;;;;;;;7.76;3.15;;;;;;;22.98;57.55;100528.67;;;;-49
2019/07/24 07:56:07;;;;;;;6.11;3.11;;;;;;;22.99;57.51;100526.11;;;;-52
2019/07/24 07:59:07;;;;;;;6.40;3.06;;;;;;;23.02;57.49;100522.84;;;;-52
2019/07/24 08:02:07;;;;;;;5.06;3.01;;;;;;;23.02;57.43;100520.75;;;;-49
2019/07/24 08:05:07;;;;;;;10.34;3.25;;;;;;;23.03;57.46;100520.14;;;;-50
2019/07/24 08:08:07;;;;;;;5.26;2.92;;;;;;;23.02;57.53;100523.27;;;;-50
2019/07/24 08:11:07;;;;;;;4.35;2.84;;;;;;;23.03;57.48;100524.83;;;;-49
2019/07/24 08:14:07;;;;;;;6.83;3.00;;;;;;;23.05;57.52;100521.82;;;;-50
2019/07/24 08:17:07;;;;;;;6.11;3.15;;;;;;;23.06;57.50;100520.67;;;;-52
2019/07/24 08:20:07;;;;;;;4.17;3.02;;;;;;;23.07;57.48;100526.84;;;;-53
2019/07/24 08:23:07;;;;;;;4.55;2.90;;;;;;;23.07;57.41;100523.50;;;;-50
2019/07/24 08:26:07;;;;;;;8.23;3.08;;;;;;;23.09;57.35;100526.26;;;;-51
2019/07/24 08:29:07;;;;;;;5.79;3.06;;;;;;;23.09;57.48;100522.89;;;;-51
2019/07/24 08:32:07;;;;;;;4.87;3.00;;;;;;;23.10;57.45;100525.81;;;;-53
2019/07/24 08:35:07;;;;;;;4.75;2.77;;;;;;;23.10;57.41;100522.52;;;;-50
2019/07/24 08:38:07;;;;;;;5.32;3.00;;;;;;;23.12;57.25;100525.27;;;;-51
2019/07/24 08:41:07;;;;;;;4.98;2.89;;;;;;;23.12;57.36;100523.08;;;;-50
2019/07/24 08:44:07;;;;;;;4.49;2.66;;;;;;;23.12;57.26;100519.20;;;;-51
2019/07/24 08:47:07;;;;;;;4.66;2.81;;;;;;;23.13;57.33;100517.38;;;;-52
2019/07/24 08:50:07;;;;;;;3.76;2.84;;;;;;;23.14;57.33;100520.05;;;;-51
2019/07/24 08:53:07;;;;;;;4.91;2.87;;;;;;;23.15;57.31;100521.42;;;;-52
2019/07/24 08:56:07;;;;;;;4.95;2.92;;;;;;;23.16;57.29;100522.36;;;;-49
2019/07/24 08:59:07;;;;;;;5.97;2.95;;;;;;;23.16;57.31;100521.85;;;;-51
2019/07/24 09:02:07;;;;;;;5.99;2.87;;;;;;;23.17;57.36;100515.14;;;;-48
2019/07/24 09:05:07;;;;;;;3.90;2.81;;;;;;;23.18;57.19;100517.03;;;;-51
2019/07/24 09:08:07;;;;;;;6.13;3.11;;;;;;;23.18;57.30;100513.66;;;;-47
2019/07/24 09:11:07;;;;;;;4.67;2.76;;;;;;;23.20;57.33;100523.16;;;;-48
2019/07/24 09:14:07;;;;;;;4.65;2.79;;;;;;;23.20;57.12;100519.01;;;;-49
2019/07/24 09:17:07;;;;;;;4.10;2.79;;;;;;;23.21;57.22;100519.55;;;;-50
2019/07/24 09:20:07;;;;;;;4.54;2.57;;;;;;;23.21;57.14;100514.08;;;;-51
2019/07/24 09:23:07;;;;;;;5.19;2.86;;;;;;;23.22;57.15;100511.76;;;;-51
2019/07/24 09:26:07;;;;;;;3.94;2.79;;;;;;;23.22;57.23;100508.45;;;;-53
2019/07/24 09:29:07;;;;;;;7.07;2.80;;;;;;;23.22;57.11;100512.16;;;;-48
2019/07/24 09:32:07;;;;;;;5.33;2.81;;;;;;;23.22;57.26;100511.25;;;;-52
2019/07/24 09:35:07;;;;;;;5.90;2.85;;;;;;;23.23;57.22;100510.10;;;;-53
2019/07/24 09:38:07;;;;;;;4.91;2.61;;;;;;;23.23;57.26;100511.11;;;;-54
2019/07/24 09:41:07;;;;;;;5.05;2.98;;;;;;;23.25;57.16;100515.63;;;;-53
2019/07/24 09:44:07;;;;;;;3.40;2.73;;;;;;;23.24;57.25;100513.41;;;;-51
2019/07/24 09:47:07;;;;;;;3.32;2.60;;;;;;;23.25;57.14;100515.55;;;;-50
2019/07/24 09:50:07;;;;;;;8.17;2.95;;;;;;;23.26;56.97;100509.92;;;;-52
2019/07/24 09:53:07;;;;;;;3.23;2.63;;;;;;;23.26;57.03;100509.86;;;;-52
2019/07/24 09:56:07;;;;;;;3.49;2.79;;;;;;;23.26;57.08;100511.03;;;;-52
2019/07/24 09:59:07;;;;;;;4.35;2.55;;;;;;;23.26;57.06;100504.63;;;;-52
2019/07/24 10:02:07;;;;;;;3.17;2.59;;;;;;;23.25;57.00;100505.00;;;;-52
2019/07/24 10:05:07;;;;;;;3.09;2.59;;;;;;;23.24;56.98;100497.66;;;;-52
2019/07/24 10:08:07;;;;;;;3.91;2.59;;;;;;;23.23;57.14;100497.97;;;;-53
2019/07/24 10:11:07;;;;;;;3.64;2.67;;;;;;;23.23;57.04;100495.95;;;;-52
2019/07/24 10:14:07;;;;;;;5.09;2.66;;;;;;;23.24;57.00;100495.38;;;;-52
2019/07/24 10:17:07;;;;;;;4.92;2.87;;;;;;;23.25;57.06;100498.70;;;;-52
2019/07/24 10:20:07;;;;;;;4.47;2.96;;;;;;;23.25;57.02;100495.84;;;;-52
2019/07/24 10:23:07;;;;;;;4.94;2.97;;;;;;;23.27;57.07;100493.61;;;;-52
2019/07/24 10:26:07;;;;;;;5.23;2.89;;;;;;;23.27;57.09;100488.55;;;;-51
2019/07/24 10:29:07;;;;;;;4.56;2.67;;;;;;;23.28;57.00;100485.81;;;;-51
2019/07/24 10:32:07;;;;;;;3.89;2.59;;;;;;;23.29;57.05;100482.88;;;;-51
2019/07/24 10:35:07;;;;;;;4.09;2.83;;;;;;;23.29;56.95;100485.64;;;;-51
2019/07/24 10:38:07;;;;;;;5.31;2.75;;;;;;;23.30;57.00;100481.66;;;;-52
2019/07/24 10:41:07;;;;;;;3.72;2.66;;;;;;;23.30;56.95;100479.57;;;;-53
2019/07/24 10:44:07;;;;;;;3.72;2.93;;;;;;;23.31;56.96;100481.02;;;;-51
2019/07/24 10:47:07;;;;;;;7.45;2.82;;;;;;;23.32;56.97;100477.34;;;;-51
2019/07/24 10:50:07;;;;;;;5.43;2.86;;;;;;;23.32;56.92;100476.63;;;;-52
2019/07/24 10:53:07;;;;;;;2.96;2.63;;;;;;;23.33;57.05;100474.00;;;;-52
2019/07/24 10:56:07;;;;;;;5.18;2.96;;;;;;;23.33;56.98;100468.53;;;;-54
2019/07/24 10:59:07;;;;;;;3.72;2.64;;;;;;;23.34;56.98;100470.55;;;;-52
2019/07/24 11:02:07;;;;;;;3.23;2.69;;;;;;;23.34;56.88;100469.04;;;;-52
2019/07/24 11:05:07;;;;;;;5.33;2.67;;;;;;;23.34;56.90;100465.66;;;;-53
2019/07/24 11:08:07;;;;;;;3.86;2.83;;;;;;;23.34;56.98;100467.92;;;;-52
2019/07/24 11:11:07;;;;;;;4.53;2.63;;;;;;;23.34;56.97;100464.56;;;;-58
2019/07/24 11:14:07;;;;;;;3.59;2.81;;;;;;;23.34;56.96;100470.99;;;;-58
2019/07/24 11:17:07;;;;;;;4.06;2.51;;;;;;;23.34;57.02;100467.79;;;;-52
2019/07/24 11:20:07;;;;;;;3.07;2.73;;;;;;;23.35;56.93;100471.53;;;;-50
2019/07/24 11:23:08;;;;;;;5.71;2.71;;;;;;;23.36;56.99;100465.62;;;;-52
2019/07/24 11:26:07;;;;;;;3.26;2.71;;;;;;;23.35;56.95;100469.50;;;;-51
2019/07/24 11:29:07;;;;;;;3.91;2.82;;;;;;;23.37;56.97;100466.50;;;;-49
2019/07/24 11:32:07;;;;;;;3.81;2.61;;;;;;;23.37;57.02;100465.02;;;;-49
2019/07/24 11:35:07;;;;;;;3.47;2.51;;;;;;;23.36;56.93;100463.02;;;;-51
2019/07/24 11:38:07;;;;;;;2.86;2.63;;;;;;;23.37;57.01;100461.20;;;;-51
2019/07/24 11:41:07;;;;;;;3.45;2.47;;;;;;;23.37;56.87;100458.50;;;;-50
2019/07/24 11:44:07;;;;;;;3.51;2.76;;;;;;;23.36;56.91;100457.30;;;;-50
2019/07/24 11:47:07;;;;;;;6.94;2.77;;;;;;;23.36;56.94;100448.20;;;;-57
2019/07/24 11:50:07;;;;;;;4.02;2.63;;;;;;;23.37;56.97;100450.48;;;;-52
2019/07/24 11:53:07;;;;;;;4.61;2.81;;;;;;;23.36;56.99;100448.70;;;;-48
2019/07/24 11:56:07;;;;;;;3.45;2.55;;;;;;;23.37;56.93;100447.45;;;;-51
2019/07/24 11:59:07;;;;;;;4.47;2.60;;;;;;;23.37;56.95;100445.53;;;;-52
2019/07/24 12:02:07;;;;;;;4.19;2.65;;;;;;;23.37;56.92;100445.20;;;;-51
2019/07/24 12:05:07;;;;;;;2.99;2.77;;;;;;;23.37;57.02;100438.89;;;;-51
2019/07/24 12:08:07;;;;;;;2.92;2.61;;;;;;;23.37;57.04;100440.81;;;;-51
2019/07/24 12:11:07;;;;;;;5.91;2.99;;;;;;;23.39;56.90;100440.13;;;;-51
2019/07/24 12:14:07;;;;;;;5.23;2.69;;;;;;;23.39;56.92;100437.59;;;;-52
2019/07/24 12:17:07;;;;;;;4.14;2.63;;;;;;;23.39;56.92;100438.91;;;;-53
2019/07/24 12:20:07;;;;;;;3.69;2.39;;;;;;;23.39;56.84;100436.89;;;;-51
2019/07/24 12:23:07;;;;;;;5.11;2.60;;;;;;;23.39;56.77;100433.52;;;;-52
2019/07/24 12:26:07;;;;;;;5.25;2.53;;;;;;;23.38;56.80;100430.83;;;;-52
2019/07/24 12:29:07;;;;;;;2.93;2.51;;;;;;;23.37;56.80;100432.66;;;;-51
2019/07/24 12:32:07;;;;;;;3.60;2.47;;;;;;;23.38;56.75;100424.05;;;;-52
2019/07/24 12:35:07;;;;;;;3.37;2.59;;;;;;;23.37;56.72;100418.12;;;;-52
2019/07/24 12:38:07;;;;;;;2.60;2.40;;;;;;;23.36;56.75;100412.47;;;;-52
2019/07/24 12:41:07;;;;;;;2.55;2.35;;;;;;;23.37;56.66;100413.84;;;;-53
2019/07/24 12:44:07;;;;;;;3.87;2.40;;;;;;;23.36;56.69;100412.23;;;;-51
2019/07/24 12:47:07;;;;;;;3.95;2.59;;;;;;;23.35;56.69;100413.55;;;;-51
2019/07/24 12:50:07;;;;;;;4.31;2.51;;;;;;;23.35;56.67;100402.91;;;;-51
2019/07/24 12:53:07;;;;;;;2.97;2.51;;;;;;;23.34;56.63;100405.16;;;;-52
2019/07/24 12:56:07;;;;;;;3.93;2.75;;;;;;;23.35;56.71;100410.83;;;;-51
2019/07/24 12:59:07;;;;;;;2.91;2.42;;;;;;;23.35;56.65;100408.97;;;;-52
2019/07/24 13:02:07;;;;;;;2.61;2.40;;;;;;;23.34;56.65;100397.01;;;;-52
2019/07/24 13:05:07;;;;;;;2.78;2.49;;;;;;;23.34;56.64;100393.27;;;;-52
2019/07/24 13:08:07;;;;;;;3.53;2.58;;;;;;;23.34;56.57;100385.86;;;;-52
2019/07/24 13:11:07;;;;;;;3.69;2.67;;;;;;;23.33;56.80;100388.52;;;;-52
2019/07/24 13:14:07;;;;;;;4.02;2.50;;;;;;;23.35;56.78;100385.72;;;;-51
2019/07/24 13:17:07;;;;;;;3.23;2.56;;;;;;;23.34;56.84;100375.50;;;;-50
2019/07/24 13:20:07;;;;;;;3.47;2.55;;;;;;;23.36;56.93;100374.45;;;;-50
2019/07/24 13:23:07;;;;;;;4.01;2.61;;;;;;;23.37;56.84;100374.58;;;;-51
2019/07/24 13:26:07;;;;;;;4.73;2.75;;;;;;;23.37;56.89;100369.28;;;;-51
2019/07/24 13:29:07;;;;;;;3.65;2.69;;;;;;;23.38;56.90;100371.91;;;;-52
2019/07/24 13:32:07;;;;;;;3.15;2.59;;;;;;;23.39;56.94;100364.62;;;;-52
2019/07/24 13:35:07;;;;;;;3.59;2.60;;;;;;;23.40;57.01;100372.20;;;;-52
2019/07/24 13:38:07;;;;;;;4.35;2.60;;;;;;;23.40;56.95;100368.35;;;;-52
2019/07/24 13:41:09;;;;;;;5.96;2.65;;;;;;;23.41;57.08;100364.91;;;;-60
2019/07/24 13:44:07;;;;;;;3.97;2.66;;;;;;;23.42;57.03;100361.30;;;;-50
2019/07/24 13:47:07;;;;;;;2.79;2.51;;;;;;;23.42;57.09;100366.11;;;;-61
2019/07/24 13:50:07;;;;;;;3.81;2.53;;;;;;;23.43;57.03;100363.95;;;;-61
2019/07/24 13:53:07;;;;;;;3.16;2.54;;;;;;;23.44;57.05;100366.84;;;;-59
2019/07/24 13:56:07;;;;;;;3.79;2.50;;;;;;;23.44;56.96;100364.31;;;;-60
2019/07/24 13:59:07;;;;;;;3.05;2.55;;;;;;;23.44;57.04;100366.34;;;;-59
2019/07/24 14:02:07;;;;;;;3.34;2.55;;;;;;;23.45;57.15;100361.55;;;;-61
2019/07/24 14:05:07;;;;;;;5.37;2.63;;;;;;;23.45;57.04;100360.03;;;;-60
2019/07/24 14:08:07;;;;;;;7.47;3.19;;;;;;;23.46;57.25;100356.85;;;;-60
2019/07/24 14:11:07;;;;;;;8.15;3.20;;;;;;;23.46;57.57;100356.52;;;;-59
2019/07/24 14:14:07;;;;;;;6.69;3.13;;;;;;;23.47;57.81;100355.03;;;;-52
2019/07/24 14:17:07;;;;;;;5.04;2.99;;;;;;;23.46;57.59;100355.44;;;;-51
2019/07/24 14:20:07;;;;;;;7.78;3.05;;;;;;;23.47;57.72;100350.98;;;;-52
2019/07/24 14:23:07;;;;;;;4.89;3.27;;;;;;;23.46;57.69;100347.58;;;;-53
2019/07/24 14:26:07;;;;;;;4.56;2.99;;;;;;;23.47;57.68;100348.72;;;;-51
2019/07/24 14:29:07;;;;;;;5.70;2.93;;;;;;;23.46;57.62;100350.55;;;;-52
2019/07/24 14:32:07;;;;;;;4.04;2.85;;;;;;;23.47;57.61;100349.56;;;;-52
2019/07/24 14:35:07;;;;;;;3.91;2.87;;;;;;;23.47;57.62;100353.00;;;;-51
2019/07/24 14:38:07;;;;;;;6.78;3.13;;;;;;;23.47;57.57;100350.91;;;;-52
2019/07/24 14:41:07;;;;;;;7.21;2.99;;;;;;;23.48;57.63;100350.84;;;;-51
2019/07/24 14:44:07;;;;;;;3.80;3.01;;;;;;;23.49;57.60;100347.59;;;;-52
2019/07/24 14:47:07;;;;;;;3.47;2.83;;;;;;;23.49;57.54;100343.11;;;;-52
2019/07/24 14:50:07;;;;;;;5.79;2.87;;;;;;;23.48;57.64;100338.87;;;;-53
2019/07/24 14:53:07;;;;;;;4.58;2.99;;;;;;;23.49;57.68;100339.84;;;;-53
2019/07/24 14:56:07;;;;;;;5.61;3.16;;;;;;;23.48;57.75;100338.53;;;;-52
2019/07/24 14:59:07;;;;;;;3.81;3.09;;;;;;;23.49;57.64;100338.56;;;;-52
2019/07/24 15:02:07;;;;;;;3.80;2.97;;;;;;;23.49;57.58;100334.84;;;;-54
2019/07/24 15:05:07;;;;;;;6.31;3.07;;;;;;;23.48;57.56;100328.75;;;;-54
2019/07/24 15:08:07;;;;;;;3.37;2.96;;;;;;;23.47;57.77;100327.55;;;;-52
2019/07/24 15:11:07;;;;;;;5.24;3.14;;;;;;;23.47;57.72;100325.79;;;;-51
2019/07/24 15:14:07;;;;;;;7.05;3.17;;;;;;;23.49;57.73;100326.59;;;;-51
2019/07/24 15:17:07;;;;;;;3.73;3.05;;;;;;;23.50;57.62;100329.65;;;;-51
2019/07/24 15:20:07;;;;;;;3.49;3.05;;;;;;;23.50;57.77;100327.73;;;;-50
2019/07/24 15:23:07;;;;;;;3.99;3.15;;;;;;;23.50;57.77;100326.20;;;;-51
2019/07/24 15:26:07;;;;;;;3.39;3.00;;;;;;;23.49;57.67;100329.39;;;;-56
2019/07/24 15:29:07;;;;;;;3.63;2.91;;;;;;;23.49;57.74;100328.11;;;;-53
2019/07/24 15:32:07;;;;;;;4.97;2.92;;;;;;;23.50;57.83;100325.34;;;;-52
2019/07/24 15:35:07;;;;;;;4.45;3.05;;;;;;;23.51;57.73;100326.81;;;;-52
2019/07/24 15:38:07;;;;;;;4.15;3.11;;;;;;;23.51;57.84;100325.80;;;;-50
2019/07/24 15:41:07;;;;;;;3.52;2.88;;;;;;;23.51;57.62;100328.84;;;;-49
2019/07/24 15:44:07;;;;;;;4.57;3.04;;;;;;;23.52;57.76;100327.91;;;;-49
2019/07/24 15:47:07;;;;;;;4.55;3.16;;;;;;;23.52;57.70;100322.22;;;;-54
2019/07/24 15:50:07;;;;;;;3.63;3.15;;;;;;;23.52;57.71;100323.36;;;;-53
2019/07/24 15:53:07;;;;;;;4.96;2.88;;;;;;;23.52;57.70;100319.42;;;;-53
2019/07/24 15:56:07;;;;;;;3.17;2.87;;;;;;;23.52;57.79;100318.17;;;;-49
2019/07/24 15:59:07;;;;;;;5.87;3.01;;;;;;;23.53;57.68;100314.39;;;;-51
2019/07/24 16:02:07;;;;;;;5.27;3.07;;;;;;;23.53;57.64;100315.23;;;;-50
2019/07/24 16:05:07;;;;;;;6.19;3.12;;;;;;;23.52;57.66;100308.02;;;;-51
2019/07/24 16:08:07;;;;;;;4.32;3.02;;;;;;;23.52;57.71;100308.56;;;;-51
2019/07/24 16:11:07;;;;;;;3.73;3.06;;;;;;;23.52;57.71;100311.16;;;;-53
2019/07/24 16:14:07;;;;;;;3.71;2.82;;;;;;;23.53;57.69;100308.89;;;;-51
2019/07/24 16:17:07;;;;;;;3.34;2.93;;;;;;;23.54;57.74;100309.02;;;;-51
2019/07/24 16:20:07;;;;;;;3.15;2.76;;;;;;;23.54;57.65;100307.67;;;;-52
2019/07/24 16:23:07;;;;;;;3.83;2.99;;;;;;;23.54;57.65;100303.97;;;;-50
2019/07/24 16:26:07;;;;;;;3.71;3.10;;;;;;;23.54;57.69;100304.20;;;;-51
2019/07/24 16:29:07;;;;;;;4.00;3.00;;;;;;;23.54;57.62;100299.48;;;;-48
2019/07/24 16:32:07;;;;;;;5.12;3.02;;;;;;;23.54;57.73;100301.19;;;;-50
2019/07/24 16:35:07;;;;;;;3.69;3.03;;;;;;;23.54;57.76;100293.44;;;;-52
2019/07/24 16:38:07;;;;;;;3.40;3.10;;;;;;;23.55;57.73;100293.70;;;;-53
2019/07/24 16:41:07;;;;;;;4.25;2.99;;;;;;;23.54;57.54;100290.31;;;;-53
2019/07/24 16:44:07;;;;;;;4.62;2.97;;;;;;;23.52;57.61;100287.55;;;;-54
2019/07/24 16:47:07;;;;;;;12.35;3.46;;;;;;;23.51;57.88;100288.64;;;;-51